createdAt,value
2017-10-21T00:00:15.405Z,13.50
2017-10-21T00:02:42.883Z,13.50
2017-10-21T00:05:10.365Z,13.50
2017-10-21T00:07:37.853Z,13.60
2017-10-21T00:10:05.348Z,13.50
2017-10-21T00:12:32.839Z,13.50
2017-10-21T00:15:01.100Z,13.70
2017-10-21T00:17:29.359Z,13.60
2017-10-21T00:19:56.842Z,13.60
2017-10-21T00:22:25.102Z,13.70
2017-10-21T00:24:52.590Z,13.60
2017-10-21T00:27:20.093Z,13.60
2017-10-21T00:29:47.578Z,13.60
2017-10-21T00:32:15.063Z,13.60
2017-10-21T00:34:43.326Z,13.70
2017-10-21T00:37:11.592Z,13.70
2017-10-21T00:39:39.089Z,13.60
2017-10-21T00:42:06.577Z,13.60
2017-10-21T00:44:34.076Z,13.70
2017-10-21T00:47:02.350Z,13.70
2017-10-21T00:49:29.847Z,13.60
2017-10-21T00:51:57.335Z,13.60
2017-10-21T00:54:24.828Z,13.50
2017-10-21T00:56:52.324Z,13.50
2017-10-21T00:59:19.829Z,13.60
2017-10-21T01:01:47.331Z,13.50
2017-10-21T01:04:15.594Z,13.50
2017-10-21T01:06:43.846Z,13.60
2017-10-21T01:09:11.344Z,13.50
2017-10-21T01:11:39.606Z,13.60
2017-10-21T01:14:07.882Z,13.50
2017-10-21T01:16:36.136Z,13.50
2017-10-21T01:19:03.631Z,13.50
2017-10-21T01:21:31.893Z,13.60
2017-10-21T01:24:00.150Z,13.60
2017-10-21T01:26:27.644Z,13.60
2017-10-21T01:28:55.907Z,13.60
2017-10-21T01:31:24.170Z,13.50
2017-10-21T01:33:51.669Z,13.50
2017-10-21T01:36:19.161Z,13.50
2017-10-21T01:38:46.652Z,13.50
2017-10-21T01:41:14.141Z,13.60
2017-10-21T01:43:42.402Z,13.60
2017-10-21T01:46:10.663Z,13.70
2017-10-21T01:48:38.147Z,13.70
2017-10-21T01:51:06.411Z,13.60
2017-10-21T01:53:34.680Z,13.60
2017-10-21T01:56:02.180Z,13.60
2017-10-21T01:58:29.671Z,13.60
2017-10-21T02:00:57.162Z,13.60
2017-10-21T02:03:24.652Z,13.60
2017-10-21T02:05:52.150Z,13.60
2017-10-21T02:08:19.639Z,13.60
2017-10-21T02:10:47.137Z,13.60
2017-10-21T02:13:14.632Z,13.60
2017-10-21T02:15:42.127Z,13.70
2017-10-21T02:18:10.384Z,13.60
2017-10-21T02:20:37.874Z,13.60
2017-10-21T02:23:05.371Z,13.60
2017-10-21T02:25:32.865Z,13.60
2017-10-21T02:28:00.355Z,13.70
2017-10-21T02:30:27.843Z,13.70
2017-10-21T02:32:55.336Z,13.80
2017-10-21T02:35:22.817Z,13.80
2017-10-21T02:37:51.066Z,13.70
2017-10-21T02:40:18.555Z,13.70
2017-10-21T02:42:46.827Z,13.80
2017-10-21T02:45:15.088Z,13.80
2017-10-21T02:47:42.569Z,13.70
2017-10-21T02:50:10.826Z,13.80
2017-10-21T02:52:38.320Z,13.80
2017-10-21T02:55:05.816Z,14.10
2017-10-21T02:57:33.315Z,14.00
2017-10-21T03:00:01.571Z,13.90
2017-10-21T03:02:29.054Z,13.90
2017-10-21T03:04:57.306Z,13.80
2017-10-21T03:07:24.805Z,13.70
2017-10-21T03:09:53.063Z,13.60
2017-10-21T03:12:21.357Z,13.50
2017-10-21T03:14:49.617Z,13.50
2017-10-21T03:17:17.879Z,13.50
2017-10-21T03:19:45.371Z,13.50
2017-10-21T03:22:13.623Z,13.40
2017-10-21T03:24:41.114Z,13.40
2017-10-21T03:27:08.610Z,13.50
2017-10-21T03:29:36.095Z,13.50
2017-10-21T03:32:03.582Z,13.50
2017-10-21T03:34:31.079Z,13.40
2017-10-21T03:36:58.565Z,13.60
2017-10-21T03:39:26.050Z,13.60
2017-10-21T03:41:54.315Z,13.40
2017-10-21T03:44:21.807Z,13.30
2017-10-21T03:46:49.313Z,13.40
2017-10-21T03:49:16.799Z,13.30
2017-10-21T03:51:45.061Z,13.30
2017-10-21T03:54:12.560Z,13.30
2017-10-21T03:56:40.054Z,13.40
2017-10-21T03:59:07.558Z,13.40
2017-10-21T04:01:35.806Z,13.40
2017-10-21T04:04:03.298Z,13.40
2017-10-21T04:06:31.565Z,13.30
2017-10-21T04:08:59.826Z,13.30
2017-10-21T04:11:27.301Z,13.30
2017-10-21T04:13:55.559Z,13.30
2017-10-21T04:16:23.052Z,13.30
2017-10-21T04:18:51.303Z,13.40
2017-10-21T04:21:19.576Z,13.50
2017-10-21T04:23:48.600Z,13.50
2017-10-21T04:26:16.859Z,13.50
2017-10-21T04:28:44.346Z,13.40
2017-10-21T04:31:11.832Z,13.40
2017-10-21T04:33:39.328Z,13.40
2017-10-21T04:36:07.591Z,13.40
2017-10-21T04:38:35.077Z,13.40
2017-10-21T04:41:03.353Z,13.40
2017-10-21T04:43:31.610Z,13.40
2017-10-21T04:45:59.900Z,13.40
2017-10-21T04:48:27.390Z,13.40
2017-10-21T04:50:54.898Z,13.40
2017-10-21T04:53:22.399Z,13.30
2017-10-21T04:55:50.655Z,13.30
2017-10-21T04:58:18.153Z,13.30
2017-10-21T05:00:45.655Z,13.30
2017-10-21T05:03:13.139Z,13.40
2017-10-21T05:05:41.398Z,13.40
2017-10-21T05:08:08.894Z,13.30
2017-10-21T05:10:37.142Z,13.50
2017-10-21T05:13:04.626Z,13.50
2017-10-21T05:15:32.890Z,13.80
2017-10-21T05:18:01.164Z,14.40
2017-10-21T05:20:28.668Z,14.30
2017-10-21T05:22:56.168Z,14.70
2017-10-21T05:25:24.562Z,14.60
2017-10-21T05:27:52.817Z,14.40
2017-10-21T05:30:20.303Z,14.30
2017-10-21T05:32:48.568Z,14.00
2017-10-21T05:35:16.059Z,14.00
2017-10-21T05:37:43.558Z,13.80
2017-10-21T05:40:11.098Z,13.70
2017-10-21T05:42:42.454Z,13.70
2017-10-21T05:45:10.418Z,13.70
2017-10-21T05:47:38.348Z,13.60
2017-10-21T05:50:06.602Z,13.40
2017-10-21T05:52:34.224Z,13.40
2017-10-21T05:55:01.713Z,13.80
2017-10-21T05:57:29.204Z,14.00
2017-10-21T05:59:57.458Z,13.50
2017-10-21T06:02:24.955Z,13.50
2017-10-21T06:04:53.206Z,13.50
2017-10-21T06:07:20.908Z,13.50
2017-10-21T06:09:48.480Z,13.40
2017-10-21T06:12:16.355Z,13.90
2017-10-21T06:14:44.172Z,13.90
2017-10-21T06:17:11.873Z,13.60
2017-10-21T06:19:39.542Z,13.60
2017-10-21T06:22:07.074Z,14.50
2017-10-21T06:24:35.345Z,15.00
2017-10-21T06:27:03.598Z,14.90
2017-10-21T06:29:31.079Z,14.90
2017-10-21T06:31:59.331Z,15.50
2017-10-21T06:34:26.839Z,15.40
2017-10-21T06:36:54.325Z,15.40
2017-10-21T06:39:21.810Z,14.70
2017-10-21T06:41:49.304Z,14.30
2017-10-21T06:44:17.562Z,13.90
2017-10-21T06:46:45.051Z,13.90
2017-10-21T06:49:12.546Z,14.00
2017-10-21T06:51:40.047Z,14.20
2017-10-21T06:54:08.300Z,14.30
2017-10-21T06:56:35.890Z,14.30
2017-10-21T06:59:04.142Z,15.40
2017-10-21T07:01:31.626Z,15.30
2017-10-21T07:03:59.875Z,15.30
2017-10-21T07:06:27.372Z,15.20
2017-10-21T07:08:55.613Z,15.30
2017-10-21T07:11:23.103Z,15.20
2017-10-21T07:13:51.346Z,15.20
2017-10-21T07:16:19.589Z,14.50
2017-10-21T07:18:47.079Z,14.50
2017-10-21T07:21:14.575Z,14.30
2017-10-21T07:23:42.831Z,14.10
2017-10-21T07:26:10.313Z,14.00
2017-10-21T07:28:38.558Z,13.90
2017-10-21T07:31:06.046Z,13.90
2017-10-21T07:33:34.289Z,14.50
2017-10-21T07:36:01.771Z,14.40
2017-10-21T07:38:30.018Z,14.00
2017-10-21T07:40:57.543Z,14.00
2017-10-21T07:43:25.027Z,14.70
2017-10-21T07:45:52.531Z,14.30
2017-10-21T07:48:20.778Z,14.00
2017-10-21T07:50:48.259Z,14.00
2017-10-21T07:53:16.516Z,15.00
2017-10-21T07:55:44.010Z,14.90
2017-10-21T07:58:12.265Z,15.70
2017-10-21T08:00:39.756Z,15.70
2017-10-21T08:03:07.255Z,15.60
2017-10-21T08:05:34.751Z,15.80
2017-10-21T08:08:03.014Z,16.10
2017-10-21T08:10:30.498Z,16.00
2017-10-21T08:12:58.761Z,15.50
2017-10-21T08:15:27.009Z,15.10
2017-10-21T08:17:54.498Z,15.10
2017-10-21T08:20:22.753Z,14.60
2017-10-21T08:22:50.247Z,14.60
2017-10-21T08:25:18.557Z,14.50
2017-10-21T08:27:46.055Z,14.50
2017-10-21T08:30:13.555Z,14.50
2017-10-21T08:32:41.052Z,14.50
2017-10-21T08:35:08.545Z,14.70
2017-10-21T08:37:36.797Z,14.80
2017-10-21T08:40:04.285Z,14.70
2017-10-21T08:42:32.539Z,14.80
2017-10-21T08:45:00.030Z,14.80
2017-10-21T08:47:28.287Z,14.90
2017-10-21T08:49:55.780Z,14.90
2017-10-21T08:52:23.266Z,14.90
2017-10-21T08:54:50.751Z,15.30
2017-10-21T08:57:18.242Z,15.10
2017-10-21T08:59:46.501Z,15.10
2017-10-21T09:02:14.001Z,15.00
2017-10-21T09:04:41.494Z,15.00
2017-10-21T09:07:08.990Z,15.00
2017-10-21T09:09:37.252Z,15.10
2017-10-21T09:12:04.743Z,15.00
2017-10-21T09:14:32.251Z,15.20
2017-10-21T09:16:59.742Z,15.20
2017-10-21T09:19:28.003Z,15.40
2017-10-21T09:21:55.490Z,15.40
2017-10-21T09:24:23.752Z,15.60
2017-10-21T09:26:52.011Z,15.50
2017-10-21T09:29:19.494Z,15.50
2017-10-21T09:31:47.742Z,15.30
2017-10-21T09:34:15.237Z,15.30
2017-10-21T09:36:43.477Z,15.30
2017-10-21T09:39:10.971Z,15.20
2017-10-21T09:41:39.222Z,15.50
2017-10-21T09:44:06.711Z,15.50
2017-10-21T09:46:34.952Z,15.30
2017-10-21T09:49:02.443Z,15.30
2017-10-21T09:51:30.698Z,15.30
2017-10-21T09:53:58.176Z,15.30
2017-10-21T09:56:26.426Z,15.30
2017-10-21T09:58:53.917Z,15.30
2017-10-21T10:01:22.166Z,15.30
2017-10-21T10:03:49.655Z,15.30
2017-10-21T10:06:17.920Z,15.50
2017-10-21T10:08:46.170Z,15.40
2017-10-21T10:11:13.657Z,15.40
2017-10-21T10:13:41.944Z,15.40
2017-10-21T10:16:10.214Z,15.40
2017-10-21T10:18:38.461Z,15.50
2017-10-21T10:21:05.961Z,15.40
2017-10-21T10:23:33.459Z,15.50
2017-10-21T10:26:00.940Z,15.40
2017-10-21T10:28:34.975Z,15.40
2017-10-21T10:31:04.162Z,16.00
2017-10-21T10:33:31.671Z,16.00
2017-10-21T10:36:05.088Z,15.80
2017-10-21T10:38:32.570Z,15.80
2017-10-21T10:41:00.053Z,16.50
2017-10-21T10:43:28.297Z,15.80
2017-10-21T10:45:55.799Z,15.80
2017-10-21T10:48:24.057Z,15.80
2017-10-21T10:50:52.340Z,15.70
2017-10-21T10:53:19.827Z,15.60
2017-10-21T10:55:47.358Z,15.80
2017-10-21T10:58:15.611Z,15.80
2017-10-21T11:00:44.964Z,15.70
2017-10-21T11:03:12.456Z,15.70
2017-10-21T11:05:39.953Z,15.70
2017-10-21T11:08:08.224Z,15.80
2017-10-21T11:10:35.730Z,15.70
2017-10-21T11:13:03.213Z,15.80
2017-10-21T11:15:30.701Z,15.80
2017-10-21T11:17:58.196Z,16.10
2017-10-21T11:20:25.694Z,16.00
2017-10-21T11:22:53.188Z,16.00
2017-10-21T11:25:21.438Z,16.20
2017-10-21T11:27:48.931Z,16.10
2017-10-21T11:30:17.195Z,16.00
2017-10-21T11:32:45.467Z,16.30
2017-10-21T11:35:12.966Z,16.30
2017-10-21T11:37:40.466Z,16.60
2017-10-21T11:40:07.960Z,16.40
2017-10-21T11:42:36.238Z,16.90
2017-10-21T11:45:04.505Z,16.50
2017-10-21T11:47:31.990Z,16.40
2017-10-21T11:49:59.488Z,16.30
2017-10-21T11:52:26.989Z,16.30
2017-10-21T11:54:55.241Z,16.20
2017-10-21T11:57:22.730Z,16.20
2017-10-21T11:59:50.988Z,16.20
2017-10-21T12:02:18.534Z,16.10
2017-10-21T12:04:45.991Z,16.20
2017-10-21T12:07:13.486Z,16.20
2017-10-21T12:09:41.750Z,16.50
2017-10-21T12:12:09.327Z,16.40
2017-10-21T12:14:37.588Z,16.70
2017-10-21T12:17:05.860Z,17.10
2017-10-21T12:19:33.376Z,17.00
2017-10-21T12:22:00.863Z,17.00
2017-10-21T12:24:28.368Z,16.80
2017-10-21T12:26:55.845Z,16.60
2017-10-21T12:29:23.339Z,16.50
2017-10-21T12:31:50.834Z,16.70
2017-10-21T12:34:19.091Z,16.70
2017-10-21T12:36:46.582Z,16.70
2017-10-21T12:39:14.069Z,16.80
2017-10-21T12:41:41.569Z,16.60
2017-10-21T12:44:09.058Z,16.60
2017-10-21T12:46:36.702Z,16.80
2017-10-21T12:49:04.957Z,16.90
2017-10-21T12:51:32.442Z,16.80
2017-10-21T12:54:00.706Z,16.80
2017-10-21T12:56:28.194Z,16.80
2017-10-21T12:58:55.694Z,16.70
2017-10-21T13:01:23.195Z,17.00
2017-10-21T13:03:51.471Z,17.00
2017-10-21T13:06:19.726Z,17.20
2017-10-21T13:08:47.219Z,17.20
2017-10-21T13:11:14.713Z,17.20
2017-10-21T13:13:42.232Z,17.10
2017-10-21T13:16:10.763Z,17.00
2017-10-21T13:18:38.304Z,17.00
2017-10-21T13:21:05.864Z,16.90
2017-10-21T13:23:33.354Z,16.90
2017-10-21T13:26:00.842Z,16.90
2017-10-21T13:28:29.110Z,16.90
2017-10-21T13:30:56.607Z,16.90
2017-10-21T13:33:24.117Z,17.00
2017-10-21T13:35:51.633Z,17.00
2017-10-21T13:38:19.126Z,17.20
2017-10-21T13:40:46.615Z,17.50
2017-10-21T13:43:14.882Z,17.50
2017-10-21T13:45:42.382Z,17.50
2017-10-21T13:48:09.942Z,17.50
2017-10-21T13:50:37.425Z,17.30
2017-10-21T13:53:04.934Z,17.10
2017-10-21T13:55:33.206Z,17.00
2017-10-21T13:58:01.519Z,17.10
2017-10-21T14:00:29.015Z,17.00
2017-10-21T14:02:56.502Z,17.10
2017-10-21T14:05:24.783Z,17.00
2017-10-21T14:07:53.126Z,17.10
2017-10-21T14:10:20.623Z,17.10
2017-10-21T14:12:48.879Z,17.40
2017-10-21T14:15:16.383Z,17.30
2017-10-21T14:17:44.061Z,17.20
2017-10-21T14:20:11.551Z,17.10
2017-10-21T14:22:39.088Z,17.30
2017-10-21T14:25:06.654Z,17.20
2017-10-21T14:27:34.163Z,17.40
2017-10-21T14:30:02.439Z,17.30
2017-10-21T14:32:30.692Z,17.30
2017-10-21T14:34:58.247Z,17.30
2017-10-21T14:37:25.742Z,17.30
2017-10-21T14:39:54.002Z,17.40
2017-10-21T14:42:21.495Z,17.40
2017-10-21T14:44:49.027Z,17.30
2017-10-21T14:47:17.290Z,17.20
2017-10-21T14:49:44.786Z,17.10
2017-10-21T14:52:13.043Z,17.20
2017-10-21T14:54:41.678Z,17.50
2017-10-21T14:57:09.911Z,17.40
2017-10-21T14:59:38.874Z,17.50
2017-10-21T15:02:07.445Z,17.50
2017-10-21T15:04:35.419Z,17.50
2017-10-21T15:07:03.539Z,17.60
2017-10-21T15:09:32.766Z,17.30
2017-10-21T15:12:00.835Z,17.20
2017-10-21T15:14:28.810Z,17.30
2017-10-21T15:16:56.761Z,17.20
2017-10-21T15:19:24.502Z,17.20
2017-10-21T15:21:53.029Z,17.20
2017-10-21T15:24:20.693Z,17.10
2017-10-21T15:26:48.558Z,17.20
2017-10-21T15:29:16.718Z,17.20
2017-10-21T15:31:44.807Z,17.20
2017-10-21T15:34:14.783Z,17.20
2017-10-21T15:36:44.194Z,17.20
2017-10-21T15:39:14.619Z,17.10
2017-10-21T15:41:44.162Z,17.20
2017-10-21T15:44:12.043Z,17.10
2017-10-21T15:46:39.843Z,17.10
2017-10-21T15:49:07.978Z,17.10
2017-10-21T15:51:36.395Z,17.10
2017-10-21T15:54:04.527Z,17.10
2017-10-21T15:56:32.030Z,17.10
2017-10-21T15:58:59.592Z,17.10
2017-10-21T16:01:27.264Z,17.10
2017-10-21T16:03:56.627Z,17.10
2017-10-21T16:06:24.378Z,17.00
2017-10-21T16:08:53.132Z,17.00
2017-10-21T16:11:21.818Z,17.00
2017-10-21T16:13:50.655Z,17.00
2017-10-21T16:16:18.306Z,17.00
2017-10-21T16:18:46.115Z,17.00
2017-10-21T16:21:14.144Z,17.00
2017-10-21T16:23:42.115Z,17.00
2017-10-21T16:26:11.069Z,17.00
2017-10-21T16:28:39.769Z,17.00
2017-10-21T16:31:08.808Z,16.90
2017-10-21T16:33:36.553Z,16.90
2017-10-21T16:36:04.530Z,16.90
2017-10-21T16:38:32.618Z,16.90
2017-10-21T16:41:00.124Z,16.80
2017-10-21T16:43:28.888Z,16.90
2017-10-21T16:45:57.108Z,16.80
2017-10-21T16:48:24.820Z,16.80
2017-10-21T16:50:52.699Z,16.80
2017-10-21T16:53:20.531Z,16.80
2017-10-21T16:55:48.947Z,16.70
2017-10-21T16:58:16.460Z,16.70
2017-10-21T17:00:43.966Z,16.80
2017-10-21T17:03:12.223Z,16.70
2017-10-21T17:05:39.775Z,16.70
2017-10-21T17:08:07.303Z,16.70
2017-10-21T17:10:34.887Z,16.60
2017-10-21T17:13:02.383Z,16.60
2017-10-21T17:15:29.879Z,16.60
2017-10-21T17:17:57.372Z,16.60
2017-10-21T17:20:24.871Z,16.60
2017-10-21T17:22:52.372Z,16.60
2017-10-21T17:25:19.866Z,16.50
2017-10-21T17:27:47.365Z,16.50
2017-10-21T17:30:15.635Z,16.30
2017-10-21T17:32:43.937Z,16.30
2017-10-21T17:35:11.434Z,16.30
2017-10-21T17:37:38.927Z,16.40
2017-10-21T17:40:07.186Z,16.30
2017-10-21T17:42:34.674Z,16.30
2017-10-21T17:45:02.945Z,16.30
2017-10-21T17:47:31.202Z,16.40
2017-10-21T17:49:58.779Z,16.30
2017-10-21T17:52:27.082Z,16.40
2017-10-21T17:54:54.566Z,16.40
2017-10-21T17:57:22.056Z,16.50
2017-10-21T17:59:49.560Z,16.50
2017-10-21T18:02:17.046Z,16.50
2017-10-21T18:04:44.536Z,16.30
2017-10-21T18:07:12.042Z,16.20
2017-10-21T18:09:39.534Z,16.20
2017-10-21T18:12:07.041Z,16.20
2017-10-21T18:14:35.306Z,16.20
2017-10-21T18:17:02.789Z,16.20
2017-10-21T18:19:30.274Z,16.10
2017-10-21T18:21:57.794Z,16.20
2017-10-21T18:24:26.928Z,16.20
2017-10-21T18:26:55.902Z,16.20
2017-10-21T18:29:23.403Z,16.20
2017-10-21T18:31:50.900Z,16.20
2017-10-21T18:34:19.189Z,16.10
2017-10-21T18:36:46.717Z,16.10
2017-10-21T18:39:14.213Z,16.10
2017-10-21T18:41:41.717Z,16.00
2017-10-21T18:44:09.232Z,16.00
2017-10-21T18:46:36.749Z,16.00
2017-10-21T18:49:04.387Z,16.00
2017-10-21T18:51:32.174Z,16.10
2017-10-21T18:53:59.686Z,16.00
2017-10-21T18:56:27.207Z,16.10
2017-10-21T18:58:57.343Z,16.30
2017-10-21T19:01:25.746Z,16.10
2017-10-21T19:03:53.261Z,16.10
2017-10-21T19:06:20.810Z,16.10
2017-10-21T19:08:48.451Z,16.10
2017-10-21T19:11:17.392Z,16.10
2017-10-21T19:13:46.178Z,16.00
2017-10-21T19:16:13.683Z,15.90
2017-10-21T19:18:41.795Z,15.90
2017-10-21T19:21:09.304Z,16.00
2017-10-21T19:23:36.824Z,15.90
2017-10-21T19:26:04.345Z,16.00
2017-10-21T19:28:31.849Z,16.00
2017-10-21T19:30:59.408Z,16.00
2017-10-21T19:33:28.353Z,15.90
2017-10-21T19:36:01.270Z,16.00
2017-10-21T19:38:28.776Z,15.90
2017-10-21T19:40:56.877Z,16.00
2017-10-21T19:43:24.376Z,16.00
2017-10-21T19:45:51.888Z,16.00
2017-10-21T19:48:19.378Z,15.90
2017-10-21T19:50:46.889Z,15.90
2017-10-21T19:53:14.483Z,15.80
2017-10-21T19:55:41.995Z,15.90
2017-10-21T19:58:10.269Z,16.10
2017-10-21T20:00:38.538Z,16.20
2017-10-21T20:03:07.316Z,16.20
2017-10-21T20:05:34.829Z,16.10
2017-10-21T20:08:02.328Z,16.00
2017-10-21T20:10:31.741Z,15.90
2017-10-21T20:12:59.441Z,15.80
2017-10-21T20:15:28.416Z,15.80
2017-10-21T20:17:58.662Z,15.70
2017-10-21T20:20:27.178Z,15.70
2017-10-21T20:22:54.811Z,15.60
2017-10-21T20:25:22.340Z,15.60
2017-10-21T20:27:51.396Z,15.60
2017-10-21T20:30:18.887Z,15.60
2017-10-21T20:32:47.180Z,15.70
2017-10-21T20:35:15.561Z,15.70
2017-10-21T20:37:43.984Z,15.70
2017-10-21T20:40:11.469Z,15.60
2017-10-21T20:42:38.960Z,15.70
2017-10-21T20:45:07.222Z,15.70
2017-10-21T20:47:35.489Z,15.60
2017-10-21T20:50:02.995Z,15.50
2017-10-21T20:52:30.508Z,15.60
2017-10-21T20:54:58.761Z,15.60
2017-10-21T20:57:26.247Z,15.60
2017-10-21T20:59:53.774Z,15.60
2017-10-21T21:02:21.320Z,15.60
2017-10-21T21:04:48.815Z,15.60
2017-10-21T21:07:16.311Z,15.60
2017-10-21T21:09:44.557Z,15.50
2017-10-21T21:12:12.053Z,15.40
2017-10-21T21:14:39.533Z,15.50
2017-10-21T21:17:07.032Z,15.40
2017-10-21T21:19:34.530Z,15.40
2017-10-21T21:22:02.785Z,15.40
2017-10-21T21:24:31.051Z,15.50
2017-10-21T21:26:58.546Z,15.50
2017-10-21T21:29:26.046Z,15.50
2017-10-21T21:31:53.553Z,15.50
2017-10-21T21:34:21.803Z,15.40
2017-10-21T21:36:49.306Z,15.40
2017-10-21T21:39:16.790Z,15.50
2017-10-21T21:41:49.701Z,15.60
2017-10-21T21:44:18.307Z,15.50
2017-10-21T21:46:46.570Z,15.70
2017-10-21T21:49:14.183Z,15.70
2017-10-21T21:51:41.747Z,15.60
2017-10-21T21:54:09.429Z,15.60
2017-10-21T21:56:36.920Z,15.70
2017-10-21T21:59:08.882Z,16.00
2017-10-21T22:01:36.397Z,16.40
2017-10-21T22:04:03.946Z,16.20
2017-10-21T22:06:31.525Z,16.00
2017-10-21T22:08:59.010Z,15.80
2017-10-21T22:11:26.505Z,15.70
2017-10-21T22:13:54.917Z,15.70
2017-10-21T22:16:22.458Z,15.60
2017-10-21T22:18:49.998Z,15.60
2017-10-21T22:21:18.262Z,15.80
2017-10-21T22:23:45.827Z,15.80
2017-10-21T22:26:13.364Z,15.90
2017-10-21T22:28:41.788Z,15.60
2017-10-21T22:31:10.092Z,15.50
2017-10-21T22:33:37.962Z,15.50
2017-10-21T22:36:05.605Z,15.40
2017-10-21T22:38:33.108Z,15.30
2017-10-21T22:41:04.694Z,15.20
2017-10-21T22:43:32.972Z,15.20
2017-10-21T22:46:00.513Z,15.30
2017-10-21T22:48:28.071Z,15.30
2017-10-21T22:50:55.635Z,15.40
2017-10-21T22:53:23.143Z,15.40
2017-10-21T22:55:50.737Z,15.40
2017-10-21T22:58:18.471Z,15.40
2017-10-21T23:00:46.254Z,15.30
2017-10-21T23:03:13.896Z,15.30
2017-10-21T23:05:41.392Z,15.30
2017-10-21T23:08:08.902Z,15.40
2017-10-21T23:10:37.167Z,15.40
2017-10-21T23:13:05.451Z,15.40
2017-10-21T23:15:33.718Z,15.40
2017-10-21T23:18:02.005Z,15.50
2017-10-21T23:20:30.264Z,15.50
2017-10-21T23:23:01.614Z,15.50
2017-10-21T23:25:30.231Z,15.50
2017-10-21T23:27:59.420Z,16.00
2017-10-21T23:30:27.707Z,15.90
2017-10-21T23:32:56.000Z,15.80
2017-10-21T23:35:23.618Z,15.70
2017-10-21T23:37:51.188Z,15.60
2017-10-21T23:40:19.469Z,15.50
2017-10-21T23:42:47.799Z,15.50
2017-10-21T23:45:15.453Z,15.40
2017-10-21T23:47:43.105Z,15.50
2017-10-21T23:50:10.775Z,15.40
2017-10-21T23:52:38.315Z,15.40
2017-10-21T23:55:05.885Z,15.50
2017-10-21T23:57:33.374Z,15.50
